Ephrata, PA

12:58 PM EDT on September 02, 2015 (GMT -0400)
Weather on the Hill / or not | | Change Station
CLOSE
Current Station
Personal Weather Station
Location: Ephrata, PA
Elevation: 499 ft
Nearby Weather Stations

Elev 499 ft 40.17 °N, 76.18 °W | Updated 6 seconds ago

Clear
Clear
84.1 °F
Feels Like 85 °F
N
3.8
Wind Variable Wind from NNW
Gusts 12.1 mph

Today
High -- | Low -- °F
--% Chance of Precip.
Yesterday
High -- | Low -- °F
Precip. -- in
6:33 AM 7:35 PM
Waning Gibbous, 79% visible
Pressure 30.00 in
Visibility 9.0 miles
Clouds Clear
Heat Index 85 °F
Dew Point 62 °F
Humidity 48%
Rainfall 0.00 in
Snow Depth Not available.
UV 0.0 out of 12
Pollen 9.90 out of 12
Air Quality Not available.
Flu Activity Not available.
METAR KLNS 021653Z 30010KT 9SM CLR 30/17 A3001 RMK AO2 SLP159 T03000172
Pressure 30.00 in
Visibility 9.0 miles
Clouds Clear
Heat Index 85 °F
Dew Point 62 °F
Humidity 48%
Rainfall 0.00 in
Snow Depth Not available.
UV 0.0 out of 12
Pollen 9.90 out of 12
Air Quality Not available.
Flu Activity Not available.
METAR KLNS 021653Z 30010KT 9SM CLR 30/17 A3001 RMK AO2 SLP159 T03000172

10-Day Weather Forecast

×

Almanac

Astronomy

Sep. 02, 2015 Rise Set
Actual Time
Civil Twilight
Nautical Twilight
Astronomical Twilight
Moon
Length of Visible Light
Length of Day
Tomorrow will be .
, % of the Moon is Illuminated

Today's Extremes

State Highs State Lows

Community

WunderPhotos

Upload Photos

1,851,783 photos uploaded!

WunderBlogs® & News

Nearby

Air Quality

  Air Quality AQ Index Pollutant
Not available.

Snow Depth

Station Depth Elevation

Earthquake Activity

City Distance Mag. Time & Date
Minimum magnitude displayed is 2.5.

Coastal Water Temperatures

Place Temperature

Stations

Nearby Weather Stations

Station Location Temp. Windchill Dew Point Humidity Wind Precip. Elev Updated Type